Botkins, OH (45306)

5:52 PM EST on November 23, 2014 (GMT -0500)
OHDOT | Change Station
CLOSE
Current Station
Personal Weather Station
Location: Botkins, OH
Elevation: 1000 ft
Nearby Weather Stations
Active Advisory: Wind Advisory

Elev 1000 ft 40.50 °N, 84.17 °W | Updated 19 hours ago

Rain
Rain
53 °F
Feels Like 53 °F
N
15
Wind Variable Wind from SE
Gusts 18 mph

Today
High -- | Low -- °F
--% Chance of Precip.
Yesterday
High -- | Low -- °F
Precip. -- in
7:32 AM 5:13 PM
New Moon, 2% visible
Pressure 29.60 in
Visibility 10.0 miles
Clouds Overcast 6000 ft
Dew Point 46 °F
Humidity 78%
Rainfall -999.00 in
Snow Depth Not available.
UV 0 out of 12
Pollen .10 out of 12
Air Quality Not available.
Flu Activity Not available.
METAR KAOH 232153Z AUTO 12010KT 10SM OVC060 14/06 A2960 RMK AO2 SLP024 T01390061

More Conditions Fewer Conditions

Pressure 29.60 in
Visibility 10.0 miles
Clouds Overcast 6000 ft
Dew Point 46 °F
Humidity 78%
Rainfall -999.00 in
Snow Depth Not available.
UV 0 out of 12
Pollen .10 out of 12
Air Quality Not available.
Flu Activity Not available.
METAR KAOH 232153Z AUTO 12010KT 10SM OVC060 14/06 A2960 RMK AO2 SLP024 T01390061

More Conditions Fewer Conditions

10-Day Weather Forecast

Almanac

Astronomy

Nov. 23, 2014 Rise Set
Actual Time
Civil Twilight
Nautical Twilight
Astronomical Twilight
Moon
Length of Visible Light
Length of Day
Tomorrow will be .
, % of the Moon is Illuminated

Today's Extremes

State Highs State Lows

Community

WunderPhotos

Upload Photos

1,773,187 photos uploaded!

WunderBlogs® & News

Nearby

Air Quality

  Air Quality AQ Index Pollutant
Not available.

Snow Depth

Station Depth Elevation

Earthquake Activity

City Distance Mag. Time & Date
Minimum magnitude displayed is 2.5.

Coastal Water Temperatures

Place Temperature

Nearby Weather Stations